Time;durP1;ratioP1;P1;durP2;ratioP2;P2;SDS_P1;SDS_P2;PMS_P1;PMS_P2;Temp;Humidity;BMP_temperature;BMP_pressure;BME280_temperature;BME280_humidity;BME280_pressure;Samples;Min_cycle;Max_cycle;Signal;HPM_P1;HPM_P2
2023/06/01 00:02:14;;;;;;;;;6.75;6.75;;;;;22.55;43.60;101427.16;6246500;22;45203;-66
2023/06/01 00:04:40;;;;;;;;;8.00;7.25;;;;;22.46;44.14;101431.41;6246827;22;45592;-66
2023/06/01 00:07:10;;;;;;;;;7.25;7.25;;;;;22.37;44.22;101419.34;6244404;22;45737;-66
2023/06/01 00:09:35;;;;;;;;;7.25;7.00;;;;;22.43;44.40;101425.34;6218515;22;47160;-66
2023/06/01 00:12:01;;;;;;;;;10.75;7.75;;;;;22.35;44.59;101409.56;6244566;22;45261;-66
2023/06/01 00:14:27;;;;;;;;;6.25;6.00;;;;;22.33;44.00;101412.38;6246591;22;45299;-66
2023/06/01 00:16:52;;;;;;;;;5.75;5.75;;;;;22.26;44.16;101402.91;6246150;22;45527;-66
2023/06/01 00:19:20;;;;;;;;;10.00;8.50;;;;;22.37;44.67;101422.09;6246280;22;46860;-66
2023/06/01 00:21:46;;;;;;;;;5.75;5.75;;;;;22.28;44.65;101405.50;6244635;22;45384;-66
2023/06/01 00:24:11;;;;;;;;;8.00;8.00;;;;;22.27;44.86;101407.38;6246628;22;45397;-66
2023/06/01 00:26:36;;;;;;;;;8.00;7.00;;;;;22.29;44.56;101412.75;6246423;22;45310;-66
2023/06/01 00:29:02;;;;;;;;;10.00;8.00;;;;;22.16;44.88;101401.81;6245841;22;46517;-66
2023/06/01 00:31:27;;;;;;;;;6.50;6.00;;;;;22.10;45.44;101400.41;6269984;22;45306;-65
2023/06/01 00:33:52;;;;;;;;;7.00;7.00;;;;;22.14;45.37;101406.50;6246762;22;45299;-66
2023/06/01 00:36:18;;;;;;;;;7.75;7.75;;;;;22.17;45.48;101419.88;6244503;22;45470;-66
2023/06/01 00:38:43;;;;;;;;;10.50;8.00;;;;;22.15;45.96;101413.66;6245732;22;45467;-66
2023/06/01 00:41:09;;;;;;;;;9.50;8.50;;;;;22.12;45.37;101419.31;6244371;22;45807;-65
2023/06/01 00:43:34;;;;;;;;;9.50;7.00;;;;;22.12;45.45;101422.91;6246572;22;45377;-66
2023/06/01 00:46:00;;;;;;;;;6.25;6.25;;;;;22.13;46.26;101430.06;6246112;22;45478;-66
2023/06/01 00:48:25;;;;;;;;;8.00;7.25;;;;;22.09;46.48;101419.56;6246018;22;46084;-66
2023/06/01 00:50:51;;;;;;;;;8.75;7.25;;;;;22.03;46.41;101420.84;6246308;22;45388;-66
2023/06/01 00:53:18;;;;;;;;;6.25;6.00;;;;;21.96;46.36;101405.94;6246457;22;45259;-66
2023/06/01 00:55:44;;;;;;;;;10.25;7.25;;;;;21.81;46.65;101386.13;6245962;22;45592;-66
2023/06/01 00:58:11;;;;;;;;;7.75;7.75;;;;;22.00;46.97;101421.03;6245484;22;47251;-66
2023/06/01 01:00:37;;;;;;;;;7.50;7.25;;;;;22.00;46.74;101423.75;6245027;22;45359;-66
2023/06/01 01:03:07;;;;;;;;;9.75;8.00;;;;;21.93;46.68;101425.19;6246505;22;45331;-66
2023/06/01 01:05:33;;;;;;;;;14.50;8.00;;;;;21.95;46.72;101425.94;6244540;22;45711;-66
2023/06/01 01:08:36;;;;;;;;;8.00;8.00;;;;;21.94;47.59;101432.38;6244716;22;46777;-66
2023/06/01 01:11:15;;;;;;;;;8.00;8.00;;;;;21.77;47.08;101418.09;6245342;22;45437;-66
2023/06/01 01:14:01;;;;;;;;;12.25;11.25;;;;;21.77;47.87;101428.97;6247465;22;45278;-65
2023/06/01 01:16:31;;;;;;;;;14.50;11.00;;;;;21.73;48.06;101430.13;6247187;22;45267;-66
2023/06/01 01:19:16;;;;;;;;;9.00;9.00;;;;;21.73;48.58;101432.00;6246605;22;45896;-66
2023/06/01 01:21:50;;;;;;;;;11.00;8.25;;;;;21.64;48.74;101422.63;6247365;22;45409;-66
2023/06/01 01:24:39;;;;;;;;;9.25;9.00;;;;;21.64;49.00;101428.06;6245465;22;45344;-66
2023/06/01 01:27:17;;;;;;;;;11.25;10.50;;;;;21.62;49.09;101430.03;6246734;22;45236;-65
2023/06/01 01:29:45;;;;;;;;;10.50;10.00;;;;;21.48;49.16;101421.94;6247136;22;45270;-66
2023/06/01 01:32:12;;;;;;;;;10.25;7.75;;;;;21.49;49.53;101427.25;6247111;22;45467;-66
2023/06/01 01:34:41;;;;;;;;;12.25;10.75;;;;;21.38;49.44;101414.34;6245591;22;45505;-66
2023/06/01 01:37:06;;;;;;;;;9.00;8.00;;;;;21.28;49.82;101413.22;6246584;22;45445;-66
2023/06/01 01:39:32;;;;;;;;;10.00;9.00;;;;;21.31;50.12;101429.31;6245601;22;57643;-66
2023/06/01 01:41:57;;;;;;;;;10.75;10.00;;;;;21.34;50.00;101437.28;6246071;22;55346;-65
2023/06/01 01:44:22;;;;;;;;;10.25;10.25;;;;;21.32;50.32;101431.06;6246714;22;50977;-66
2023/06/01 01:47:06;;;;;;;;;15.25;12.50;;;;;21.16;50.31;101422.22;6244180;22;45290;-66
2023/06/01 01:49:44;;;;;;;;;14.50;12.25;;;;;21.10;50.99;101427.06;6247062;22;45901;-66
2023/06/01 01:52:48;;;;;;;;;13.00;12.00;;;;;21.12;50.94;101426.06;6247014;22;45735;-66
2023/06/01 01:55:17;;;;;;;;;9.75;8.50;;;;;21.01;51.33;101416.81;6214150;22;45375;-66
2023/06/01 01:57:44;;;;;;;;;12.00;11.50;;;;;21.07;51.40;101420.97;6187688;22;45296;-66
2023/06/01 02:00:11;;;;;;;;;11.75;9.75;;;;;21.02;51.29;101424.00;6228300;22;48467;-66
2023/06/01 02:02:37;;;;;;;;;15.25;12.25;;;;;21.08;51.60;101431.75;6247036;22;45330;-66
2023/06/01 02:05:02;;;;;;;;;14.50;12.50;;;;;20.87;52.13;101415.00;6247620;22;45311;-66
2023/06/01 02:07:28;;;;;;;;;14.00;14.00;;;;;20.86;51.57;101410.53;6246447;22;45303;-66
2023/06/01 02:09:53;;;;;;;;;11.25;11.25;;;;;20.99;52.48;101429.63;6246800;22;45381;-66
2023/06/01 02:12:18;;;;;;;;;15.50;15.50;;;;;20.98;52.18;101429.72;6247253;22;45393;-66
2023/06/01 02:14:44;;;;;;;;;14.75;14.25;;;;;20.86;52.32;101412.38;6246960;22;45277;-66
2023/06/01 02:17:09;;;;;;;;;19.00;16.75;;;;;20.90;53.12;101422.09;6246534;22;45279;-66
2023/06/01 02:19:34;;;;;;;;;15.25;15.25;;;;;20.76;53.24;101405.81;6247166;22;45324;-66
2023/06/01 02:22:00;;;;;;;;;14.25;14.00;;;;;20.71;53.13;101396.16;6246618;22;45411;-66
2023/06/01 02:24:25;;;;;;;;;17.00;16.00;;;;;20.68;53.32;101401.78;6247233;22;45490;-66
2023/06/01 02:26:54;;;;;;;;;15.50;15.50;;;;;20.64;53.36;101410.19;6244556;22;45417;-66
2023/06/01 02:29:23;;;;;;;;;14.00;13.75;;;;;20.63;53.54;101403.91;6246850;22;45608;-66
2023/06/01 02:31:50;;;;;;;;;14.50;13.50;;;;;20.59;53.55;101404.16;6246997;22;45492;-66
2023/06/01 02:34:16;;;;;;;;;17.25;14.25;;;;;20.58;54.04;101418.69;6247223;22;45334;-66
2023/06/01 02:36:41;;;;;;;;;16.25;16.25;;;;;20.51;54.00;101424.53;6247082;22;45382;-66
2023/06/01 02:39:06;;;;;;;;;17.50;16.25;;;;;20.43;54.15;101402.44;6246215;22;45969;-66
2023/06/01 02:41:32;;;;;;;;;17.50;15.75;;;;;20.50;54.03;101411.06;6246291;22;58147;-66
2023/06/01 02:43:57;;;;;;;;;22.50;21.25;;;;;20.52;54.15;101419.97;6247194;22;45395;-66
2023/06/01 02:46:22;;;;;;;;;19.25;14.50;;;;;20.49;54.34;101412.88;6246773;22;45409;-66
2023/06/01 02:48:48;;;;;;;;;20.75;18.50;;;;;20.50;54.53;101419.19;6246958;22;45375;-66
2023/06/01 02:51:13;;;;;;;;;19.00;17.75;;;;;20.37;54.81;101408.25;6247126;22;45211;-66
2023/06/01 02:53:41;;;;;;;;;14.25;14.25;;;;;20.31;54.60;101404.09;6247206;22;45255;-66
2023/06/01 02:56:07;;;;;;;;;18.00;16.75;;;;;20.36;55.09;101412.81;6246371;22;45371;-66
2023/06/01 02:58:32;;;;;;;;;21.25;18.50;;;;;20.35;54.79;101416.47;6246516;22;45316;-66
2023/06/01 03:00:58;;;;;;;;;20.00;18.50;;;;;20.25;55.16;101399.03;6243829;22;45678;-66
2023/06/01 03:03:24;;;;;;;;;29.75;25.00;;;;;20.36;55.18;101411.91;6247205;22;45314;-65
2023/06/01 03:05:50;;;;;;;;;23.50;19.75;;;;;20.33;55.27;101417.53;6244861;22;45426;-66
2023/06/01 03:08:16;;;;;;;;;26.25;25.00;;;;;20.22;55.41;101410.06;6245945;22;46062;-66
2023/06/01 03:10:42;;;;;;;;;25.75;24.75;;;;;20.16;55.95;101411.34;6246991;22;45233;-66
2023/06/01 03:13:07;;;;;;;;;24.00;24.00;;;;;20.11;55.84;101413.47;6245221;22;45289;-66
2023/06/01 03:15:34;;;;;;;;;23.25;20.75;;;;;20.07;55.96;101416.47;6246133;22;45248;-66
2023/06/01 03:18:00;;;;;;;;;18.50;18.00;;;;;20.03;55.92;101402.22;6244718;22;48298;-66
2023/06/01 03:20:26;;;;;;;;;23.50;20.25;;;;;20.01;56.30;101416.81;6244700;22;45797;-66
2023/06/01 03:22:52;;;;;;;;;25.50;21.75;;;;;19.94;56.20;101409.06;6246940;22;45340;-65
2023/06/01 03:25:17;;;;;;;;;24.75;21.50;;;;;19.85;56.43;101404.22;6246960;22;45465;-66
2023/06/01 03:27:43;;;;;;;;;24.75;23.25;;;;;19.78;56.80;101411.00;6246196;22;45471;-66
2023/06/01 03:30:12;;;;;;;;;21.00;18.75;;;;;19.77;56.96;101411.94;6246618;22;45377;-65
2023/06/01 03:32:38;;;;;;;;;20.50;18.00;;;;;19.77;56.85;101423.63;6247036;22;45265;-66
2023/06/01 03:35:07;;;;;;;;;22.50;20.50;;;;;19.72;57.18;101419.44;6244912;22;46132;-66
2023/06/01 03:37:32;;;;;;;;;34.50;26.25;;;;;19.56;57.27;101405.94;6243362;22;48136;-66
2023/06/01 03:39:58;;;;;;;;;22.75;20.25;;;;;19.54;57.24;101419.56;6244687;22;45576;-66
2023/06/01 03:42:23;;;;;;;;;18.75;18.00;;;;;19.49;57.43;101418.97;6246547;22;48742;-66
2023/06/01 03:44:48;;;;;;;;;20.75;20.25;;;;;19.47;57.51;101410.06;6244377;22;45352;-66
2023/06/01 03:47:14;;;;;;;;;22.50;22.50;;;;;19.57;57.45;101427.50;6244570;22;47095;-66
2023/06/01 03:49:40;;;;;;;;;22.50;17.75;;;;;19.53;57.49;101414.22;6246786;22;45310;-66
2023/06/01 03:52:06;;;;;;;;;23.00;23.00;;;;;19.62;57.58;101424.53;6246923;22;45450;-66
2023/06/01 03:54:31;;;;;;;;;25.00;23.25;;;;;19.46;58.09;101413.72;6244754;22;45446;-66
2023/06/01 03:56:57;;;;;;;;;22.50;20.50;;;;;19.43;58.01;101420.22;6246316;22;45263;-66
2023/06/01 03:59:22;;;;;;;;;26.75;24.50;;;;;19.27;58.11;101395.00;6246450;22;45280;-66
2023/06/01 04:01:49;;;;;;;;;20.50;18.50;;;;;19.36;58.26;101418.84;6246193;22;45317;-66
2023/06/01 04:04:16;;;;;;;;;30.00;29.00;;;;;19.34;58.57;101419.88;6246705;22;45425;-65
2023/06/01 04:06:44;;;;;;;;;26.50;23.50;;;;;19.30;58.77;101426.44;6246511;22;46074;-66
2023/06/01 04:09:11;;;;;;;;;22.75;22.00;;;;;19.28;58.69;101428.34;6244942;22;45413;-66
2023/06/01 04:11:39;;;;;;;;;23.75;23.00;;;;;19.14;59.22;101412.91;6246809;22;45354;-66
2023/06/01 04:14:04;;;;;;;;;30.25;28.00;;;;;19.18;59.12;101422.63;6244062;22;45292;-66
2023/06/01 04:16:30;;;;;;;;;25.50;25.00;;;;;19.11;58.99;101422.09;6244336;22;47076;-66
2023/06/01 04:18:56;;;;;;;;;27.75;24.00;;;;;19.03;59.49;101416.25;6243517;22;58210;-66
2023/06/01 04:21:22;;;;;;;;;31.75;28.75;;;;;19.11;59.17;101430.22;6246706;22;45271;-66
2023/06/01 04:23:48;;;;;;;;;22.50;22.50;;;;;19.12;59.39;101437.34;6243772;22;45636;-66
2023/06/01 04:26:14;;;;;;;;;28.75;26.50;;;;;19.18;59.57;101444.25;6246209;22;45299;-66
2023/06/01 04:28:43;;;;;;;;;24.50;23.75;;;;;19.13;59.58;101436.41;6246272;22;45318;-66
2023/06/01 04:31:16;;;;;;;;;24.00;21.25;;;;;19.13;59.41;101438.22;6245423;22;45385;-66
2023/06/01 04:33:44;;;;;;;;;29.00;28.00;;;;;19.05;59.60;101428.72;6245777;22;45280;-66
2023/06/01 04:36:13;;;;;;;;;24.25;22.25;;;;;19.04;59.76;101434.22;6243988;22;47081;-66
2023/06/01 04:38:41;;;;;;;;;23.75;21.50;;;;;19.08;59.88;101441.22;6245741;22;45514;-66
2023/06/01 04:41:09;;;;;;;;;30.25;26.25;;;;;19.08;59.94;101446.63;6247833;22;45316;-66
2023/06/01 04:43:36;;;;;;;;;28.75;27.25;;;;;18.96;59.75;101431.06;6249481;22;45506;-66
2023/06/01 04:46:04;;;;;;;;;24.50;24.50;;;;;19.00;59.83;101443.47;6249119;22;46053;-66
2023/06/01 04:48:31;;;;;;;;;32.50;28.75;;;;;19.03;60.10;101455.00;6247434;22;45307;-66
2023/06/01 04:51:00;;;;;;;;;32.75;30.00;;;;;18.97;60.20;101460.75;6247864;22;45288;-66
2023/06/01 04:53:26;;;;;;;;;29.75;26.25;;;;;18.91;60.21;101458.41;6246736;22;45234;-66
2023/06/01 04:55:51;;;;;;;;;34.75;32.25;;;;;18.82;60.29;101448.91;6248807;22;47055;-65
2023/06/01 04:58:17;;;;;;;;;36.75;32.50;;;;;18.79;60.45;101448.22;6249206;22;45374;-66
2023/06/01 05:00:42;;;;;;;;;31.25;28.50;;;;;18.75;61.01;101457.47;6246667;22;45442;-66
2023/06/01 05:03:07;;;;;;;;;29.50;28.25;;;;;18.58;60.96;101439.47;6249372;22;45605;-66
2023/06/01 05:05:33;;;;;;;;;35.25;31.50;;;;;18.61;61.74;101459.09;6249039;22;52200;-65
2023/06/01 05:07:58;;;;;;;;;34.25;31.00;;;;;18.52;61.52;101455.03;6249040;22;45270;-66
2023/06/01 05:10:24;;;;;;;;;33.75;30.00;;;;;18.54;61.46;101456.81;6249721;22;45316;-65
2023/06/01 05:12:49;;;;;;;;;29.25;26.75;;;;;18.47;61.76;101440.03;6249110;22;45239;-66
2023/06/01 05:15:16;;;;;;;;;36.00;31.75;;;;;18.58;61.82;101463.81;6248675;22;45499;-66
2023/06/01 05:17:42;;;;;;;;;31.25;30.00;;;;;18.59;61.93;101454.72;6248738;22;45318;-65
2023/06/01 05:20:08;;;;;;;;;27.00;26.50;;;;;18.61;61.71;101458.22;6249234;22;45442;-66
2023/06/01 05:22:34;;;;;;;;;31.50;29.00;;;;;18.57;61.53;101451.25;6248847;22;45413;-65
2023/06/01 05:25:00;;;;;;;;;31.50;30.75;;;;;18.65;61.59;101462.50;6246190;22;47032;-65
2023/06/01 05:27:26;;;;;;;;;36.25;29.75;;;;;18.65;61.53;101457.09;6248724;22;45365;-66
2023/06/01 05:29:51;;;;;;;;;29.25;26.50;;;;;18.68;61.43;101465.91;6247268;22;45446;-66
2023/06/01 05:32:17;;;;;;;;;34.50;33.25;;;;;18.65;61.33;101454.41;6248392;22;45532;-66
2023/06/01 05:34:42;;;;;;;;;29.25;27.00;;;;;18.61;61.83;101447.38;6247184;22;48140;-66
2023/06/01 05:37:08;;;;;;;;;37.50;34.25;;;;;18.65;61.80;101457.97;6247189;22;45556;-66
2023/06/01 05:39:33;;;;;;;;;33.50;30.75;;;;;18.62;61.53;101458.13;6249003;22;45375;-66
2023/06/01 05:41:59;;;;;;;;;34.75;31.50;;;;;18.72;61.70;101466.59;6248863;22;45350;-65
2023/06/01 05:44:24;;;;;;;;;42.25;34.50;;;;;18.74;62.13;101466.53;6248446;22;46933;-66
2023/06/01 05:46:51;;;;;;;;;33.75;32.00;;;;;18.67;61.88;101471.41;6246816;22;45361;-65
2023/06/01 05:49:17;;;;;;;;;31.00;29.00;;;;;18.64;61.95;101472.47;6248567;22;45284;-65
2023/06/01 05:51:43;;;;;;;;;41.50;32.00;;;;;18.63;61.98;101477.94;6247101;22;45161;-65
2023/06/01 05:54:08;;;;;;;;;37.50;32.75;;;;;18.58;62.26;101466.50;6243811;22;46960;-65
2023/06/01 05:56:34;;;;;;;;;38.75;33.00;;;;;18.61;62.20;101472.63;6244186;22;45273;-65
2023/06/01 05:58:59;;;;;;;;;36.50;33.25;;;;;18.64;62.29;101476.97;6244202;22;45534;-65
2023/06/01 06:01:27;;;;;;;;;38.00;35.00;;;;;18.49;62.32;101452.53;6244348;22;45513;-65
2023/06/01 06:03:52;;;;;;;;;35.00;31.25;;;;;18.45;62.66;101460.88;6245886;22;45453;-65
2023/06/01 06:06:18;;;;;;;;;39.00;33.00;;;;;18.45;63.00;101475.28;6246959;22;45311;-65
2023/06/01 06:08:43;;;;;;;;;37.25;31.75;;;;;18.42;62.74;101471.88;6244663;22;45523;-65
2023/06/01 06:11:08;;;;;;;;;34.50;32.25;;;;;18.45;62.94;101477.97;6270377;22;45303;-65
2023/06/01 06:13:34;;;;;;;;;32.00;31.50;;;;;18.46;62.76;101471.63;6246136;22;54106;-65
2023/06/01 06:15:59;;;;;;;;;34.25;33.25;;;;;18.45;62.81;101467.16;6246655;22;45236;-65
2023/06/01 06:18:25;;;;;;;;;30.75;30.00;;;;;18.50;62.98;101472.31;6246234;22;45758;-65
2023/06/01 06:20:50;;;;;;;;;31.75;30.25;;;;;18.47;62.75;101456.25;6245060;22;45443;-65
2023/06/01 06:23:15;;;;;;;;;32.25;29.25;;;;;18.58;63.01;101469.22;6246015;22;45981;-64
2023/06/01 06:25:41;;;;;;;;;31.25;30.25;;;;;18.60;62.92;101475.41;6246938;22;45295;-65
2023/06/01 06:28:07;;;;;;;;;31.75;28.75;;;;;18.56;62.92;101465.69;6246867;22;45342;-64
2023/06/01 06:30:32;;;;;;;;;29.75;27.50;;;;;18.50;62.94;101451.56;6246598;22;45676;-65
2023/06/01 06:32:58;;;;;;;;;35.75;34.50;;;;;18.55;62.36;101470.25;6244801;22;45297;-64
2023/06/01 06:35:23;;;;;;;;;34.75;32.00;;;;;18.48;63.31;101464.28;6246547;22;45302;-65
2023/06/01 06:37:48;;;;;;;;;31.25;29.75;;;;;18.47;63.19;101458.97;6244575;22;45644;-66
2023/06/01 06:40:14;;;;;;;;;34.00;33.00;;;;;18.44;63.29;101460.03;6246478;22;45455;-66
2023/06/01 06:42:40;;;;;;;;;39.00;34.00;;;;;18.40;63.27;101446.75;6245387;22;46006;-67
2023/06/01 06:45:06;;;;;;;;;37.25;32.00;;;;;18.53;63.10;101455.94;6244128;22;45336;-66
2023/06/01 06:47:32;;;;;;;;;36.50;32.25;;;;;18.47;63.21;101445.44;6246706;22;45377;-66
2023/06/01 06:49:57;;;;;;;;;41.25;32.25;;;;;18.58;62.88;101448.44;6246897;22;45456;-66
2023/06/01 06:52:22;;;;;;;;;34.75;30.00;;;;;18.68;62.78;101459.63;6246293;22;45360;-66
2023/06/01 06:54:48;;;;;;;;;43.00;35.00;;;;;18.71;62.22;101462.19;6246873;22;45252;-66
2023/06/01 06:57:13;;;;;;;;;32.00;31.50;;;;;18.67;62.53;101453.34;6244436;22;45382;-66
2023/06/01 06:59:38;;;;;;;;;37.75;33.00;;;;;18.52;62.47;101428.00;6245416;22;45504;-66
2023/06/01 07:02:04;;;;;;;;;24.00;24.00;;;;;18.62;62.70;101446.44;6246290;22;45415;-66
2023/06/01 07:04:30;;;;;;;;;35.25;32.00;;;;;18.76;62.60;101468.22;6244184;22;45383;-65
2023/06/01 07:06:55;;;;;;;;;29.25;28.50;;;;;18.79;62.87;101464.44;6246431;22;45477;-66
2023/06/01 07:09:21;;;;;;;;;35.75;30.50;;;;;18.80;62.52;101460.78;6246638;22;45434;-66
2023/06/01 07:11:47;;;;;;;;;35.25;30.25;;;;;18.82;62.83;101464.28;6246479;22;46251;-66
2023/06/01 07:14:13;;;;;;;;;32.50;26.00;;;;;18.91;62.36;101466.50;6245226;22;45550;-66
2023/06/01 07:16:39;;;;;;;;;32.25;29.25;;;;;18.87;62.54;101464.91;6239948;22;45340;-66
2023/06/01 07:19:04;;;;;;;;;37.00;33.00;;;;;18.99;62.75;101477.75;6269887;22;45365;-66
2023/06/01 07:21:29;;;;;;;;;31.25;27.00;;;;;19.02;62.53;101474.88;6244063;22;46846;-65
2023/06/01 07:23:55;;;;;;;;;30.50;26.00;;;;;19.04;62.22;101472.09;6246229;22;45217;-66
2023/06/01 07:26:25;;;;;;;;;31.25;29.25;;;;;19.02;62.28;101458.66;6266073;22;45304;-65
2023/06/01 07:28:52;;;;;;;;;30.75;26.75;;;;;19.21;62.33;101479.25;6244545;22;45487;-65
2023/06/01 07:31:18;;;;;;;;;32.25;28.50;;;;;19.24;62.24;101482.69;6241132;22;46661;-65
2023/06/01 07:33:44;;;;;;;;;27.75;26.50;;;;;19.27;62.17;101478.91;6242884;22;45290;-66
2023/06/01 07:36:09;;;;;;;;;30.75;27.25;;;;;19.31;61.85;101483.19;6243325;22;45297;-65
2023/06/01 07:38:35;;;;;;;;;30.25;28.25;;;;;19.38;62.17;101486.44;6245953;22;47188;-65
2023/06/01 07:41:00;;;;;;;;;30.50;27.75;;;;;19.43;61.45;101496.00;6244322;22;48388;-65
2023/06/01 07:43:26;;;;;;;;;30.00;27.50;;;;;19.34;61.55;101474.00;6243161;22;45906;-66
2023/06/01 07:45:51;;;;;;;;;36.00;31.25;;;;;19.50;61.07;101492.97;6268057;22;45554;-65
2023/06/01 07:48:16;;;;;;;;;34.25;27.50;;;;;19.48;61.47;101495.75;6245896;22;45632;-66
2023/06/01 07:50:42;;;;;;;;;34.00;30.25;;;;;19.47;61.32;101495.84;6216442;22;47132;-66
2023/06/01 07:53:08;;;;;;;;;29.75;28.75;;;;;19.57;61.25;101510.59;6242403;22;45419;-66
2023/06/01 07:55:34;;;;;;;;;31.25;31.00;;;;;19.54;60.71;101487.25;6243212;22;45380;-65
2023/06/01 07:57:59;;;;;;;;;38.00;33.25;;;;;19.68;60.98;101510.84;6243215;22;45442;-66
2023/06/01 08:00:26;;;;;;;;;28.50;27.75;;;;;19.69;61.05;101500.88;6244641;22;45995;-66
2023/06/01 08:02:52;;;;;;;;;25.00;22.75;;;;;19.76;62.16;101510.41;6244330;22;45314;-65
2023/06/01 08:05:18;;;;;;;;;22.75;22.75;;;;;19.79;61.18;101497.53;6246415;22;45311;-66
2023/06/01 08:07:45;;;;;;;;;26.50;24.75;;;;;19.78;60.79;101476.00;6245438;22;45450;-66
2023/06/01 08:10:12;;;;;;;;;25.50;24.00;;;;;19.99;60.71;101492.78;6244132;22;47489;-66
2023/06/01 08:12:37;;;;;;;;;24.25;24.00;;;;;20.15;60.75;101500.88;6246042;22;45447;-65
2023/06/01 08:15:03;;;;;;;;;33.00;28.75;;;;;20.25;60.97;101502.06;6245517;22;45390;-66
2023/06/01 08:17:29;;;;;;;;;25.75;22.75;;;;;20.24;60.14;101486.75;6245440;22;45369;-66
2023/06/01 08:19:56;;;;;;;;;27.75;25.00;;;;;20.42;59.67;101505.56;6268854;22;47384;-66
2023/06/01 08:22:23;;;;;;;;;26.25;24.25;;;;;20.42;59.88;101489.31;6243686;22;45307;-65
2023/06/01 08:24:49;;;;;;;;;27.00;24.50;;;;;20.53;59.96;101503.03;6245850;22;45269;-65
2023/06/01 08:27:18;;;;;;;;;23.00;20.75;;;;;20.61;59.79;101502.56;6245668;22;45744;-66
2023/06/01 08:29:45;;;;;;;;;23.50;22.75;;;;;20.65;59.61;101491.47;6244978;22;45457;-66
2023/06/01 08:32:11;;;;;;;;;19.75;15.25;;;;;20.66;59.19;101489.63;6243707;22;45393;-66
2023/06/01 08:34:36;;;;;;;;;28.75;26.00;;;;;20.83;59.22;101500.31;6246348;22;45283;-66
2023/06/01 08:37:02;;;;;;;;;27.50;25.00;;;;;20.84;59.31;101485.75;6243121;22;48128;-66
2023/06/01 08:39:27;;;;;;;;;23.25;23.00;;;;;20.97;59.06;101485.84;6268676;22;47133;-66
2023/06/01 08:42:25;;;;;;;;;18.75;17.75;;;;;20.92;58.80;101474.41;6244302;22;45315;-66
2023/06/01 08:44:53;;;;;;;;;31.00;28.00;;;;;20.86;58.82;101458.50;6246234;22;45287;-66
2023/06/01 08:47:20;;;;;;;;;25.00;24.00;;;;;21.01;58.23;101473.81;6244874;22;45319;-65
2023/06/01 08:49:46;;;;;;;;;25.00;20.00;;;;;21.10;57.74;101481.34;6245152;22;45340;-66
2023/06/01 08:52:13;;;;;;;;;21.75;20.50;;;;;21.22;58.22;101492.41;6243442;22;45872;-66
2023/06/01 08:54:38;;;;;;;;;23.25;20.25;;;;;21.24;58.11;101476.88;6244836;22;45255;-65
2023/06/01 08:57:07;;;;;;;;;26.75;24.25;;;;;21.35;57.91;101479.75;6242383;22;45724;-67
2023/06/01 08:59:35;;;;;;;;;21.00;20.00;;;;;21.30;58.15;101465.63;6240672;22;45529;-66
2023/06/01 09:02:00;;;;;;;;;22.75;22.25;;;;;21.40;57.32;101483.03;6236765;22;45922;-66
2023/06/01 09:04:26;;;;;;;;;23.25;22.25;;;;;21.46;57.71;101471.75;6243836;22;45364;-66
2023/06/01 09:06:52;;;;;;;;;25.00;23.00;;;;;21.48;57.64;101477.09;6242573;22;45300;-66
2023/06/01 09:09:17;;;;;;;;;20.00;19.50;;;;;21.35;57.15;101444.47;6243125;22;48547;-66
2023/06/01 09:11:44;;;;;;;;;25.00;22.50;;;;;21.61;58.05;101479.88;6245482;22;45205;-65
2023/06/01 09:14:22;;;;;;;;;24.00;20.50;;;;;21.66;57.66;101466.84;6245270;22;45497;-66
2023/06/01 09:16:48;;;;;;;;;24.50;20.50;;;;;21.74;57.03;101475.38;6245076;22;45421;-65
2023/06/01 09:19:14;;;;;;;;;24.25;24.25;;;;;21.79;56.72;101470.47;6245181;22;46434;-66
2023/06/01 09:21:40;;;;;;;;;23.25;21.75;;;;;21.71;56.77;101452.97;6244852;22;45330;-66
2023/06/01 09:24:22;;;;;;;;;22.75;21.75;;;;;21.80;57.15;101461.38;6242788;22;45685;-65
2023/06/01 09:26:48;;;;;;;;;20.25;20.00;;;;;21.94;56.79;101473.13;6243122;22;45422;-66
2023/06/01 09:29:14;;;;;;;;;20.50;17.00;;;;;21.94;56.29;101467.69;6245318;22;45339;-66
2023/06/01 09:31:40;;;;;;;;;22.75;20.00;;;;;22.02;56.60;101460.75;6244568;22;45350;-66
2023/06/01 09:34:19;;;;;;;;;20.00;19.75;;;;;22.00;56.38;101459.09;6244633;22;45329;-66
2023/06/01 09:36:50;;;;;;;;;25.25;21.25;;;;;22.00;56.36;101448.22;6243934;22;45338;-66
2023/06/01 09:39:19;;;;;;;;;20.25;20.00;;;;;22.02;55.79;101449.88;6244259;22;47947;-66
2023/06/01 09:41:54;;;;;;;;;21.00;19.00;;;;;22.12;56.08;101463.69;6246868;22;45465;-66
2023/06/01 09:44:29;;;;;;;;;19.00;17.25;;;;;22.11;55.94;101458.38;6245234;22;45193;-66
2023/06/01 09:46:55;;;;;;;;;18.00;18.00;;;;;22.19;55.76;101451.41;6245253;22;45663;-66
2023/06/01 09:49:39;;;;;;;;;22.75;18.75;;;;;22.20;55.42;101442.28;6246489;22;45244;-66
2023/06/01 09:52:07;;;;;;;;;20.50;18.00;;;;;22.27;54.98;101455.44;6244323;22;45563;-66
2023/06/01 09:54:32;;;;;;;;;19.75;18.50;;;;;22.29;55.48;101453.53;6246841;22;45359;-66
2023/06/01 09:57:00;;;;;;;;;19.50;17.75;;;;;22.30;55.02;101447.97;6243464;22;45976;-66
2023/06/01 09:59:28;;;;;;;;;21.50;21.50;;;;;22.30;54.71;101447.97;6245453;22;46634;-66
2023/06/01 10:01:55;;;;;;;;;23.50;20.50;;;;;22.31;55.06;101436.09;6244748;22;45189;-66
2023/06/01 10:04:26;;;;;;;;;15.50;15.00;;;;;22.36;54.96;101433.94;6243965;22;45327;-66
2023/06/01 10:06:54;;;;;;;;;15.75;15.75;;;;;22.42;54.94;101437.19;6244865;22;45500;-66
2023/06/01 10:09:20;;;;;;;;;21.25;20.00;;;;;22.51;54.43;101440.13;6244376;22;45505;-66
2023/06/01 10:11:53;;;;;;;;;22.25;21.25;;;;;22.46;54.40;101423.25;6246124;22;45353;-66
2023/06/01 10:14:19;;;;;;;;;18.00;17.75;;;;;22.54;55.12;101420.88;6245743;22;45282;-66
2023/06/01 10:16:44;;;;;;;;;19.50;17.75;;;;;22.61;54.04;101420.44;6245748;22;45233;-66
2023/06/01 10:19:11;;;;;;;;;21.25;20.50;;;;;22.68;54.13;101424.44;6245210;22;45874;-66
2023/06/01 10:21:39;;;;;;;;;18.50;18.50;;;;;22.71;54.70;101429.66;6245541;22;45229;-66
2023/06/01 10:24:06;;;;;;;;;17.00;17.00;;;;;22.72;54.23;101418.66;6245193;22;45308;-66
2023/06/01 10:26:40;;;;;;;;;18.75;18.00;;;;;22.80;53.93;101422.66;6245776;22;45308;-66
2023/06/01 10:29:06;;;;;;;;;16.25;16.25;;;;;22.81;54.45;101410.81;6245186;22;45769;-65
2023/06/01 10:31:40;;;;;;;;;18.75;17.75;;;;;22.88;54.06;101418.38;6216954;22;45442;-65
2023/06/01 10:34:07;;;;;;;;;17.50;17.50;;;;;22.97;53.62;101425.03;6245759;22;45347;-66
2023/06/01 10:36:51;;;;;;;;;17.75;17.50;;;;;23.07;53.01;101423.38;6244888;22;45521;-66
2023/06/01 10:39:24;;;;;;;;;15.25;13.50;;;;;22.85;53.10;101379.66;6243573;22;48058;-66
2023/06/01 10:41:49;;;;;;;;;18.50;17.00;;;;;23.17;52.85;101420.84;6243838;22;45406;-66
2023/06/01 10:44:54;;;;;;;;;23.00;21.25;;;;;23.22;52.53;101421.38;6243562;22;45280;-65
2023/06/01 10:47:39;;;;;;;;;20.00;18.75;;;;;23.29;52.43;101410.88;6241005;22;45735;-65
2023/06/01 10:50:04;;;;;;;;;21.25;21.00;;;;;23.34;52.57;101403.22;6242411;22;48134;-65
2023/06/01 10:52:35;;;;;;;;;17.00;16.25;;;;;23.35;53.03;101402.22;6244992;22;45400;-66
2023/06/01 10:55:07;;;;;;;;;17.25;15.00;;;;;23.50;52.18;101411.09;6241857;22;45340;-66
2023/06/01 10:57:45;;;;;;;;;20.50;18.50;;;;;23.53;51.85;101410.00;6243097;22;45591;-66
2023/06/01 11:00:18;;;;;;;;;17.75;17.50;;;;;23.64;51.91;101415.50;6243210;22;45774;-66
2023/06/01 11:02:48;;;;;;;;;18.00;17.50;;;;;23.62;51.63;101393.81;6244210;22;45256;-66
2023/06/01 11:05:47;;;;;;;;;15.25;15.25;;;;;23.76;51.57;101408.22;6243307;22;45430;-66
2023/06/01 11:08:19;;;;;;;;;20.50;18.25;;;;;23.79;50.74;101416.16;6245556;22;45362;-66
2023/06/01 11:10:50;;;;;;;;;19.75;18.00;;;;;23.83;51.10;101406.78;6243351;22;47068;-66
2023/06/01 11:13:37;;;;;;;;;20.50;19.50;;;;;23.89;51.02;101398.13;6244927;22;45379;-65
2023/06/01 11:16:18;;;;;;;;;20.50;16.25;;;;;23.96;50.58;101391.19;6241912;22;45367;-66